Palermo, West Virginia
Current Conditions -  °F | °C
As of 2:51 PM on Saturday 25 Oct 2014 (Local Time) from KHTS Reporting Station
Overcast Overcast  
Wind Chill: 65°   Ceiling: 2800
Heat Index: 65°   Visibility: 10mi
Dew Point: 50°   Wind: 10mph
Humidity: 58%   Direction: 210°SSW
Pressure: 29.94"   Gusts: 21mph
Location:  38.2555°N, 82.2488°W
Report Text: KHTS 251851Z 21009G18KT 10SM BKN028 OVC036 18/10 A2994 RMK AO2 SLP138 T01830100
Loading
Personal Weather Stations






























Interactive Weather Map
Tropical Storm Tracking
New forecast layout! Learn more

10-Day Weather Forecast

Advertisements
Track Severe Weather on mobile